Rye Brook, NY

12:37 AM EST on December 05, 2016 (GMT -0500)
Rye Brook | | Change Station

Elev 220 ft 41.02 °N, 73.69 °W | Updated 2 seconds ago

Clear
Clear
33.2 °F
Feels Like 33 °F
N
0.0
Wind Variable Wind from ENE

Today
High -- | Low -- °F
--% Chance of Precip.
Yesterday
High -- | Low -- °F
Precip. -- in
Pressure 30.12 in
Visibility 10.0 miles
Clouds Clear
Windchill 33 °F
Dew Point 23 °F
Humidity 68%
Rainfall 0.00 in
Snow Depth Not available.
7:04 AM 4:26 PM
Waxing Crescent, 28% visible
METAR KHPN 050456Z 07005KT 10SM CLR 01/M06 A3010 RMK AO2 SLP200 T00111061 400611006
Pressure 30.12 in
Visibility 10.0 miles
Clouds Clear
Windchill 33 °F
Dew Point 23 °F
Humidity 68%
Rainfall 0.00 in
Snow Depth Not available.
7:04 AM 4:26 PM
Waxing Crescent, 28% visible
METAR KHPN 050456Z 07005KT 10SM CLR 01/M06 A3010 RMK AO2 SLP200 T00111061 400611006

10-Day Weather Forecast

Almanac

Astronomy

Dec. 05, 2016 Rise Set
Actual Time
Civil Twilight
Nautical Twilight
Astronomical Twilight
Moon
Length of Visible Light
Length of Day
Tomorrow will be .
, % of the Moon is Illuminated

Today's Extremes

State Highs State Lows

Community

WunderPhotos

Upload Photos

1,955,757 photos uploaded!

WunderBlog® & News

Nearby

Air Quality

  Air Quality AQ Index Pollutant
Not available.

Snow Depth

Station Depth Elevation

Earthquake Activity

City Distance Mag. Time & Date
Minimum magnitude displayed is 2.5.

Coastal Water Temperatures

Place Temperature

Stations

Nearby Weather Stations

Station Location Temp. Windchill Dew Point Humidity Wind Precip. Elev Updated Type
                   

Watches & Warnings

There are currently no watches in effect.